Time;durP1;ratioP1;P1;durP2;ratioP2;P2;SDS_P1;SDS_P2;PMS_P1;PMS_P2;Temp;Humidity;BMP_temperature;BMP_pressure;BME280_temperature;BME280_humidity;BME280_pressure;Samples;Min_cycle;Max_cycle;Signal;HPM_P1;HPM_P2
2022/06/15 06:01:37;;;;;;;6.95;3.80;;;;;;;;;;10496175;28;20411;-80
2022/06/15 06:06:38;;;;;;;7.00;3.80;;;;;;;;;;10493150;28;20028;-80
2022/06/15 06:11:39;;;;;;;6.28;3.33;;;;;;;;;;10493587;28;20024;-80
2022/06/15 06:16:40;;;;;;;6.75;3.10;;;;;;;;;;10496403;28;20427;-80
2022/06/15 06:21:44;;;;;;;7.00;3.30;;;;;;;;;;10495086;28;20486;-78
2022/06/15 06:26:45;;;;;;;3.85;2.85;;;;;;;;;;10496197;28;20516;-78
2022/06/15 06:31:46;;;;;;;6.97;3.05;;;;;;;;;;10496877;28;20028;-78
2022/06/15 06:36:48;;;;;;;4.93;3.30;;;;;;;;;;10495954;28;20028;-79
2022/06/15 06:41:49;;;;;;;6.05;3.53;;;;;;;;;;10498449;28;20020;-78
2022/06/15 06:46:51;;;;;;;5.15;3.13;;;;;;;;;;10496800;28;20028;-79
2022/06/15 06:51:52;;;;;;;8.02;3.47;;;;;;;;;;10496092;28;20025;-79
2022/06/15 06:56:53;;;;;;;6.82;3.30;;;;;;;;;;10495753;28;20024;-78
2022/06/15 07:01:54;;;;;;;6.75;2.58;;;;;;;;;;10497199;28;20024;-80
2022/06/15 07:06:59;;;;;;;5.18;2.60;;;;;;;;;;10496578;28;20033;-77
2022/06/15 07:12:00;;;;;;;5.97;2.65;;;;;;;;;;10467301;28;20023;-76
2022/06/15 07:17:01;;;;;;;5.10;3.20;;;;;;;;;;10463759;28;20028;-78
2022/06/15 07:22:02;;;;;;;5.22;2.25;;;;;;;;;;10468018;28;20051;-79
2022/06/15 07:27:04;;;;;;;3.72;1.98;;;;;;;;;;10465814;28;20024;-79
2022/06/15 07:32:05;;;;;;;5.18;2.65;;;;;;;;;;10468078;28;20414;-79
2022/06/15 07:37:07;;;;;;;4.25;2.67;;;;;;;;;;10466123;28;20052;-79
2022/06/15 07:42:10;;;;;;;5.53;2.42;;;;;;;;;;10466724;28;20056;-79
2022/06/15 07:52:34;;;;;;;4.07;2.35;;;;;;;;;;10471047;28;20398;-78
2022/06/15 07:57:35;;;;;;;7.47;4.85;;;;;;;;;;10475314;28;20100;-78
2022/06/15 08:02:36;;;;;;;4.10;2.40;;;;;;;;;;10468136;28;20497;-79
2022/06/15 08:07:37;;;;;;;3.72;2.20;;;;;;;;;;10465778;28;20127;-78
2022/06/15 08:12:38;;;;;;;4.68;2.60;;;;;;;;;;10468888;28;20067;-78
2022/06/15 08:17:43;;;;;;;5.15;2.10;;;;;;;;;;10468244;28;20086;-79
2022/06/15 08:22:48;;;;;;;4.47;2.30;;;;;;;;;;10467276;28;20407;-79
2022/06/15 08:27:49;;;;;;;3.80;2.47;;;;;;;;;;10468476;28;20467;-79
2022/06/15 08:32:50;;;;;;;5.05;2.65;;;;;;;;;;10467889;28;20039;-79
2022/06/15 08:37:51;;;;;;;4.47;2.28;;;;;;;;;;10467181;28;20029;-79
2022/06/15 08:43:06;;;;;;;3.88;2.50;;;;;;;;;;10467230;28;20044;-80
2022/06/15 08:48:08;;;;;;;5.35;3.53;;;;;;;;;;10469448;28;20055;-80
2022/06/15 08:53:23;;;;;;;6.70;2.83;;;;;;;;;;10466254;28;20436;-81
2022/06/15 08:58:43;;;;;;;5.97;2.42;;;;;;;;;;10472716;28;20043;-79
2022/06/15 09:03:44;;;;;;;;;;;;;;;;;;10467531;28;20048;-81
2022/06/15 09:08:55;;;;;;;3.35;2.42;;;;;;;;;;10463826;28;19917;-79
2022/06/15 09:14:05;;;;;;;9.70;2.80;;;;;;;;;;10461795;28;20052;-79
2022/06/15 09:19:08;;;;;;;3.88;2.38;;;;;;;;;;10464605;28;20029;-78
2022/06/15 09:24:31;;;;;;;6.55;2.47;;;;;;;;;;10472156;28;20025;-79
2022/06/15 09:29:35;;;;;;;5.38;2.55;;;;;;;;;;10468776;28;20051;-80
2022/06/15 09:34:43;;;;;;;4.85;2.70;;;;;;;;;;10472423;28;20082;-79
2022/06/15 09:39:44;;;;;;;3.90;2.28;;;;;;;;;;10471095;28;20024;-80
2022/06/15 09:45:00;;;;;;;5.22;2.80;;;;;;;;;;10472179;28;20017;-79
2022/06/15 09:50:14;;;;;;;8.05;2.97;;;;;;;;;;10458764;28;20074;-79
2022/06/15 09:55:24;;;;;;;5.05;2.60;;;;;;;;;;10458219;28;20032;-78
2022/06/15 10:00:25;;;;;;;3.90;2.40;;;;;;;;;;10465605;28;20081;-78
2022/06/15 10:05:37;;;;;;;5.93;3.30;;;;;;;;;;10459758;28;20390;-78
2022/06/15 10:10:45;;;;;;;4.40;2.17;;;;;;;;;;10461454;28;20048;-78
2022/06/15 10:16:00;;;;;;;4.85;2.58;;;;;;;;;;10459867;28;20029;-78
2022/06/15 10:21:19;;;;;;;6.10;3.92;;;;;;;;;;10462954;28;20036;-78
2022/06/15 10:26:28;;;;;;;4.68;2.40;;;;;;;;;;10461862;28;20071;-78
2022/06/15 10:31:32;;;;;;;5.55;2.60;;;;;;;;;;10463468;28;20399;-79
2022/06/15 10:36:36;;;;;;;7.57;3.05;;;;;;;;;;10460833;28;20111;-78
2022/06/15 10:41:47;;;;;;;5.10;2.55;;;;;;;;;;10461086;28;20483;-79
2022/06/15 10:46:50;;;;;;;14.70;11.57;;;;;;;;;;10466024;28;20089;-78
2022/06/15 10:51:53;;;;;;;4.82;3.05;;;;;;;;;;10468509;28;20477;-79
2022/06/15 11:02:23;;;;;;;5.50;3.47;;;;;;;;;;10472867;28;20037;-78
2022/06/15 11:07:24;;;;;;;6.80;2.78;;;;;;;;;;10465922;28;20048;-78
2022/06/15 11:12:33;;;;;;;5.82;2.97;;;;;;;;;;10466575;28;20025;-78
2022/06/15 11:23:12;;;;;;;4.70;2.90;;;;;;;;;;10467182;28;20032;-78
2022/06/15 11:28:16;;;;;;;6.90;2.88;;;;;;;;;;10487779;22;20091;-83
2022/06/15 11:33:38;;;;;;;5.80;2.72;;;;;;;;;;10481291;28;20509;-81
2022/06/15 11:38:46;;;;;;;4.20;2.60;;;;;;;;;;10489738;28;20031;-82
2022/06/15 11:43:50;;;;;;;11.75;7.88;;;;;;;;;;10478588;28;20036;-83
2022/06/15 11:49:15;;;;;;;6.78;2.80;;;;;;;;;;10475133;28;20032;-85
2022/06/15 11:54:42;;;;;;;6.03;2.50;;;;;;;;;;10477286;28;20036;-83
2022/06/15 11:59:52;;;;;;;11.02;2.53;;;;;;;;;;10487300;28;20398;-84
2022/06/15 12:05:16;;;;;;;6.20;4.00;;;;;;;;;;10477417;28;20089;-84
2022/06/15 12:16:19;;;;;;;12.25;8.57;;;;;;;;;;10478792;28;20021;-83
2022/06/15 12:32:37;;;;;;;4.75;2.50;;;;;;;;;;10477670;28;20446;-83
2022/06/15 12:37:42;;;;;;;7.47;2.40;;;;;;;;;;10473506;28;20124;-83
2022/06/15 12:42:48;;;;;;;8.20;2.67;;;;;;;;;;10483790;28;20021;-82
2022/06/15 12:48:17;;;;;;;20.08;16.50;;;;;;;;;;10484986;28;20063;-83
2022/06/15 12:53:58;;;;;;;4.40;2.63;;;;;;;;;;10467046;28;20024;-83
2022/06/15 12:59:01;;;;;;;5.53;2.50;;;;;;;;;;10471261;28;20035;-83
2022/06/15 13:04:31;;;;;;;6.70;2.72;;;;;;;;;;10471309;28;20021;-83
2022/06/15 13:21:38;;;;;;;5.45;2.60;;;;;;;;;;10485214;28;20037;-82
2022/06/15 13:27:15;;;;;;;4.88;2.65;;;;;;;;;;10481887;28;20025;-82
2022/06/15 14:30:38;;;;;;;5.95;3.70;;;;;;;;;;10319244;28;20106;-82
2022/06/15 14:58:52;;;;;;;3.40;2.60;;;;;;;;;;10403801;28;20026;-81
2022/06/15 15:10:06;;;;;;;5.68;2.92;;;;;;;;;;10407965;28;20021;-82
2022/06/15 15:15:46;;;;;;;6.95;3.00;;;;;;;;;;10481798;28;20529;-82
2022/06/15 15:26:54;;;;;;;6.28;2.97;;;;;;;;;;10396904;28;20038;-82
2022/06/15 15:37:36;;;;;;;6.10;3.80;;;;;;;;;;10433094;28;20155;-81
